Philadelphia International, PA

12:49 AM EDT on September 01, 2016 (GMT -0400)
Glenolden | | Change Station

Elev 98 ft 39.89 °N, 75.29 °W | Updated 5 seconds ago

Light Rain
Light Rain
74.4 °F
Feels Like 75 °F
N
0.0
Wind Variable Wind from SSW

Today
High -- | Low -- °F
--% Chance of Precip.
Yesterday
High -- | Low -- °F
Precip. -- in
Pressure 29.88 in
Visibility 9.0 miles
Clouds Mostly Cloudy 5000 ft
Mostly Cloudy 11000 ft
Overcast 15000 ft
Heat Index 75 °F
Dew Point 68 °F
Humidity 81%
Rainfall 0.00 in
Snow Depth Not available.
6:29 AM 7:31 PM
Waning Crescent, 0% visible
SPECI KPHL 010443Z 24004KT 9SM -RA BKN050 BKN110 OVC150 25/21 A2988 RMK AO2 RAB43 P0000 T02500206 $
Pressure 29.88 in
Visibility 9.0 miles
Clouds Mostly Cloudy 5000 ft
Mostly Cloudy 11000 ft
Overcast 15000 ft
Heat Index 75 °F
Dew Point 68 °F
Humidity 81%
Rainfall 0.00 in
Snow Depth Not available.
6:29 AM 7:31 PM
Waning Crescent, 0% visible
SPECI KPHL 010443Z 24004KT 9SM -RA BKN050 BKN110 OVC150 25/21 A2988 RMK AO2 RAB43 P0000 T02500206 $

10-Day Weather Forecast

Almanac

Astronomy

Sep. 01, 2016 Rise Set
Actual Time
Civil Twilight
Nautical Twilight
Astronomical Twilight
Moon
Length of Visible Light
Length of Day
Tomorrow will be .
, % of the Moon is Illuminated

Today's Extremes

State Highs State Lows

Community

WunderPhotos

Upload Photos

1,936,313 photos uploaded!

WunderBlog® & News

Nearby

Air Quality

  Air Quality AQ Index Pollutant
Not available.

Snow Depth

Station Depth Elevation

Earthquake Activity

City Distance Mag. Time & Date
Minimum magnitude displayed is 2.5.

Coastal Water Temperatures

Place Temperature

Stations

Nearby Weather Stations

Station Location Temp. Windchill Dew Point Humidity Wind Precip. Elev Updated Type
                   

Watches & Warnings

There are currently no watches in effect.